sensor_id;sensor_type;location;lat;lon;timestamp;pressure;altitude;pressure_sealevel;temperature;humidity
75617;BME280;64200;55.426;37.758;2023-06-19T00:01:09;99481.84;;;17.06;41.18
75617;BME280;64200;55.426;37.758;2023-06-19T00:06:09;99482.38;;;17.05;41.16
75617;BME280;64200;55.426;37.758;2023-06-19T00:11:12;99479.84;;;16.95;41.13
75617;BME280;64200;55.426;37.758;2023-06-19T00:16:13;99482.66;;;16.95;41.16
75617;BME280;64200;55.426;37.758;2023-06-19T00:21:13;99486.50;;;16.92;41.27
75617;BME280;64200;55.426;37.758;2023-06-19T00:26:14;99478.03;;;16.86;41.43
75617;BME280;64200;55.426;37.758;2023-06-19T00:31:15;99481.38;;;16.85;41.35
75617;BME280;64200;55.426;37.758;2023-06-19T00:36:17;99470.09;;;16.74;41.60
75617;BME280;64200;55.426;37.758;2023-06-19T00:41:21;99470.88;;;16.63;41.78
75617;BME280;64200;55.426;37.758;2023-06-19T00:46:22;99477.53;;;16.48;42.19
75617;BME280;64200;55.426;37.758;2023-06-19T00:51:23;99471.13;;;16.42;42.37
75617;BME280;64200;55.426;37.758;2023-06-19T00:56:24;99454.75;;;16.29;42.88
75617;BME280;64200;55.426;37.758;2023-06-19T01:01:25;99471.88;;;16.37;42.72
75617;BME280;64200;55.426;37.758;2023-06-19T01:06:31;99484.44;;;16.36;42.90
75617;BME280;64200;55.426;37.758;2023-06-19T01:17:06;99489.53;;;16.21;43.39
75617;BME280;64200;55.426;37.758;2023-06-19T01:22:06;99489.00;;;16.16;43.37
75617;BME280;64200;55.426;37.758;2023-06-19T01:27:07;99488.00;;;16.08;43.71
75617;BME280;64200;55.426;37.758;2023-06-19T01:32:15;99479.50;;;15.97;43.88
75617;BME280;64200;55.426;37.758;2023-06-19T01:37:18;99491.53;;;15.92;44.19
75617;BME280;64200;55.426;37.758;2023-06-19T01:42:18;99485.13;;;15.86;44.43
75617;BME280;64200;55.426;37.758;2023-06-19T01:47:19;99478.97;;;15.93;44.19
75617;BME280;64200;55.426;37.758;2023-06-19T01:52:20;99487.19;;;15.91;44.14
75617;BME280;64200;55.426;37.758;2023-06-19T01:57:21;99485.63;;;15.90;44.25
75617;BME280;64200;55.426;37.758;2023-06-19T02:02:21;99496.38;;;15.91;44.24
75617;BME280;64200;55.426;37.758;2023-06-19T02:07:22;99493.06;;;15.87;44.42
75617;BME280;64200;55.426;37.758;2023-06-19T02:12:22;99502.25;;;15.88;43.98
75617;BME280;64200;55.426;37.758;2023-06-19T02:17:23;99499.19;;;15.86;44.40
75617;BME280;64200;55.426;37.758;2023-06-19T02:22:23;99496.88;;;15.84;44.31
75617;BME280;64200;55.426;37.758;2023-06-19T02:27:24;99501.47;;;15.82;44.15
75617;BME280;64200;55.426;37.758;2023-06-19T02:32:25;99498.69;;;15.87;44.20
75617;BME280;64200;55.426;37.758;2023-06-19T02:37:25;99496.88;;;15.90;43.95
75617;BME280;64200;55.426;37.758;2023-06-19T02:42:26;99503.28;;;15.85;43.99
75617;BME280;64200;55.426;37.758;2023-06-19T02:47:26;99492.28;;;15.81;44.11
75617;BME280;64200;55.426;37.758;2023-06-19T02:52:27;99492.28;;;15.81;44.13
75617;BME280;64200;55.426;37.758;2023-06-19T02:57:28;99488.50;;;16.07;44.26
75617;BME280;64200;55.426;37.758;2023-06-19T03:02:29;99490.56;;;16.18;43.97
75617;BME280;64200;55.426;37.758;2023-06-19T03:07:29;99490.78;;;16.03;43.31
75617;BME280;64200;55.426;37.758;2023-06-19T03:12:30;99483.91;;;16.21;43.60
75617;BME280;64200;55.426;37.758;2023-06-19T03:17:30;99491.34;;;16.29;43.24
75617;BME280;64200;55.426;37.758;2023-06-19T03:22:31;99489.53;;;16.15;43.28
75617;BME280;64200;55.426;37.758;2023-06-19T03:27:32;99491.84;;;16.28;43.08
75617;BME280;64200;55.426;37.758;2023-06-19T03:32:32;99496.72;;;16.39;42.87
75617;BME280;64200;55.426;37.758;2023-06-19T03:37:33;99493.91;;;16.50;43.05
75617;BME280;64200;55.426;37.758;2023-06-19T03:42:34;99498.53;;;16.70;42.75
75617;BME280;64200;55.426;37.758;2023-06-19T03:47:35;99503.38;;;16.81;41.35
75617;BME280;64200;55.426;37.758;2023-06-19T03:52:36;99503.66;;;16.94;41.75
75617;BME280;64200;55.426;37.758;2023-06-19T03:57:37;99500.03;;;16.99;41.41
75617;BME280;64200;55.426;37.758;2023-06-19T04:02:37;99510.03;;;17.12;40.75
75617;BME280;64200;55.426;37.758;2023-06-19T04:07:38;99511.03;;;17.26;40.57
75617;BME280;64200;55.426;37.758;2023-06-19T04:12:38;99501.75;;;17.36;40.54
75617;BME280;64200;55.426;37.758;2023-06-19T04:17:40;99506.53;;;17.64;40.40
75617;BME280;64200;55.426;37.758;2023-06-19T04:22:41;99512.34;;;17.83;39.90
75617;BME280;64200;55.426;37.758;2023-06-19T04:27:42;99502.81;;;17.98;39.45
75617;BME280;64200;55.426;37.758;2023-06-19T04:32:45;99503.09;;;17.88;39.03
75617;BME280;64200;55.426;37.758;2023-06-19T04:37:45;99503.34;;;17.96;39.55
75617;BME280;64200;55.426;37.758;2023-06-19T04:42:48;99505.00;;;18.16;38.63
75617;BME280;64200;55.426;37.758;2023-06-19T04:47:49;99502.09;;;18.33;38.75
75617;BME280;64200;55.426;37.758;2023-06-19T04:52:49;99500.88;;;18.53;38.46
75617;BME280;64200;55.426;37.758;2023-06-19T04:57:50;99503.97;;;18.55;38.14
75617;BME280;64200;55.426;37.758;2023-06-19T05:02:51;99506.75;;;18.61;38.04
75617;BME280;64200;55.426;37.758;2023-06-19T05:07:52;99505.00;;;18.88;37.85
75617;BME280;64200;55.426;37.758;2023-06-19T05:12:52;99495.09;;;19.01;37.83
75617;BME280;64200;55.426;37.758;2023-06-19T05:17:53;99502.53;;;19.28;37.70
75617;BME280;64200;55.426;37.758;2023-06-19T05:22:53;99499.22;;;19.49;37.64
75617;BME280;64200;55.426;37.758;2023-06-19T05:27:54;99509.19;;;19.56;36.95
75617;BME280;64200;55.426;37.758;2023-06-19T05:32:55;99509.81;;;19.68;36.32
75617;BME280;64200;55.426;37.758;2023-06-19T05:37:56;99505.34;;;19.78;35.82
75617;BME280;64200;55.426;37.758;2023-06-19T05:42:56;99492.94;;;20.00;35.51
75617;BME280;64200;55.426;37.758;2023-06-19T05:47:57;99497.69;;;20.11;34.32
75617;BME280;64200;55.426;37.758;2023-06-19T05:52:57;99496.44;;;20.25;33.86
75617;BME280;64200;55.426;37.758;2023-06-19T05:57:58;99502.47;;;20.35;31.89
75617;BME280;64200;55.426;37.758;2023-06-19T06:02:58;99502.47;;;20.35;32.22
75617;BME280;64200;55.426;37.758;2023-06-19T06:08:00;99500.31;;;20.41;32.26
75617;BME280;64200;55.426;37.758;2023-06-19T06:13:00;99504.72;;;20.75;31.77
75617;BME280;64200;55.426;37.758;2023-06-19T06:18:01;99496.34;;;20.96;31.68
75617;BME280;64200;55.426;37.758;2023-06-19T06:23:04;99503.78;;;21.26;30.91
75617;BME280;64200;55.426;37.758;2023-06-19T06:28:04;99506.44;;;21.50;30.74
75617;BME280;64200;55.426;37.758;2023-06-19T06:33:05;99495.59;;;21.75;29.69
75617;BME280;64200;55.426;37.758;2023-06-19T06:38:05;99501.19;;;21.68;29.26
75617;BME280;64200;55.426;37.758;2023-06-19T06:43:06;99491.59;;;22.05;29.13
75617;BME280;64200;55.426;37.758;2023-06-19T06:48:06;99496.59;;;22.47;28.28
75617;BME280;64200;55.426;37.758;2023-06-19T06:53:07;99497.38;;;22.48;27.46
75617;BME280;64200;55.426;37.758;2023-06-19T06:58:08;99503.06;;;22.69;27.21
75617;BME280;64200;55.426;37.758;2023-06-19T07:03:09;99510.84;;;23.18;27.30
75617;BME280;64200;55.426;37.758;2023-06-19T07:08:10;99508.97;;;23.49;26.44
75617;BME280;64200;55.426;37.758;2023-06-19T07:13:11;99498.84;;;23.77;26.09
75617;BME280;64200;55.426;37.758;2023-06-19T07:18:11;99491.03;;;24.22;25.91
75617;BME280;64200;55.426;37.758;2023-06-19T07:23:12;99483.81;;;24.13;25.48
75617;BME280;64200;55.426;37.758;2023-06-19T07:28:13;99488.28;;;24.99;25.26
75617;BME280;64200;55.426;37.758;2023-06-19T07:33:13;99488.72;;;25.59;24.08
75617;BME280;64200;55.426;37.758;2023-06-19T07:38:14;99490.47;;;26.03;23.47
75617;BME280;64200;55.426;37.758;2023-06-19T07:43:15;99482.16;;;26.23;23.19
75617;BME280;64200;55.426;37.758;2023-06-19T07:48:15;99485.69;;;26.39;22.13
75617;BME280;64200;55.426;37.758;2023-06-19T07:53:16;99483.19;;;26.93;23.21
75617;BME280;64200;55.426;37.758;2023-06-19T07:58:17;99485.66;;;27.84;21.67
75617;BME280;64200;55.426;37.758;2023-06-19T08:03:18;99489.00;;;28.35;20.94
75617;BME280;64200;55.426;37.758;2023-06-19T08:08:19;99481.28;;;29.90;19.43
75617;BME280;64200;55.426;37.758;2023-06-19T08:13:19;99478.34;;;30.92;18.12
75617;BME280;64200;55.426;37.758;2023-06-19T08:18:20;99481.66;;;31.97;16.70
75617;BME280;64200;55.426;37.758;2023-06-19T08:23:21;99482.66;;;32.01;16.46
75617;BME280;64200;55.426;37.758;2023-06-19T08:28:21;99479.56;;;33.28;16.09
75617;BME280;64200;55.426;37.758;2023-06-19T08:33:22;99474.81;;;34.77;15.20
75617;BME280;64200;55.426;37.758;2023-06-19T08:38:23;99472.50;;;35.75;12.75
75617;BME280;64200;55.426;37.758;2023-06-19T08:43:23;99479.69;;;35.87;12.36
75617;BME280;64200;55.426;37.758;2023-06-19T08:48:24;99476.34;;;36.73;12.03
75617;BME280;64200;55.426;37.758;2023-06-19T08:53:24;99476.25;;;36.07;11.76
75617;BME280;64200;55.426;37.758;2023-06-19T09:03:45;99468.44;;;37.07;10.56
75617;BME280;64200;55.426;37.758;2023-06-19T09:09:05;99464.72;;;36.73;10.43
75617;BME280;64200;55.426;37.758;2023-06-19T09:14:11;99467.09;;;37.81;10.66
75617;BME280;64200;55.426;37.758;2023-06-19T09:19:20;99461.94;;;37.79;9.81
75617;BME280;64200;55.426;37.758;2023-06-19T09:24:20;99456.63;;;38.90;9.86
75617;BME280;64200;55.426;37.758;2023-06-19T09:29:21;99453.69;;;39.32;8.78
75617;BME280;64200;55.426;37.758;2023-06-19T09:34:22;99447.88;;;40.00;8.67
75617;BME280;64200;55.426;37.758;2023-06-19T09:39:24;99447.53;;;38.79;8.89
75617;BME280;64200;55.426;37.758;2023-06-19T09:44:31;99450.78;;;38.29;9.52
75617;BME280;64200;55.426;37.758;2023-06-19T09:49:32;99445.63;;;39.30;9.22
75617;BME280;64200;55.426;37.758;2023-06-19T09:54:35;99430.34;;;40.00;8.58
75617;BME280;64200;55.426;37.758;2023-06-19T09:59:38;99432.56;;;41.05;8.33
75617;BME280;64200;55.426;37.758;2023-06-19T10:10:09;99431.66;;;41.26;8.22
75617;BME280;64200;55.426;37.758;2023-06-19T10:15:18;99422.69;;;41.49;7.96
75617;BME280;64200;55.426;37.758;2023-06-19T10:25:29;99411.25;;;41.61;7.45
75617;BME280;64200;55.426;37.758;2023-06-19T10:30:30;99414.97;;;41.03;7.95
75617;BME280;64200;55.426;37.758;2023-06-19T10:35:41;99405.19;;;40.66;7.61
75617;BME280;64200;55.426;37.758;2023-06-19T10:40:42;99395.63;;;39.40;8.59
75617;BME280;64200;55.426;37.758;2023-06-19T10:45:44;99394.28;;;39.67;8.61
75617;BME280;64200;55.426;37.758;2023-06-19T10:50:44;99398.78;;;39.04;8.83
75617;BME280;64200;55.426;37.758;2023-06-19T10:55:45;99379.63;;;39.90;8.43
75617;BME280;64200;55.426;37.758;2023-06-19T11:00:45;99386.97;;;40.67;8.03
75617;BME280;64200;55.426;37.758;2023-06-19T11:05:47;99382.81;;;40.24;7.89
75617;BME280;64200;55.426;37.758;2023-06-19T11:10:48;99368.16;;;40.22;7.82
75617;BME280;64200;55.426;37.758;2023-06-19T11:15:49;99368.50;;;40.34;8.17
75617;BME280;64200;55.426;37.758;2023-06-19T11:20:51;99352.25;;;35.32;9.87
75617;BME280;64200;55.426;37.758;2023-06-19T11:25:52;99353.16;;;36.98;10.31
75617;BME280;64200;55.426;37.758;2023-06-19T11:31:01;99350.25;;;39.83;8.38
75617;BME280;64200;55.426;37.758;2023-06-19T11:36:02;99346.38;;;40.53;7.51
75617;BME280;64200;55.426;37.758;2023-06-19T11:41:03;99342.97;;;39.84;7.78
75617;BME280;64200;55.426;37.758;2023-06-19T11:46:07;99347.06;;;39.99;7.47
75617;BME280;64200;55.426;37.758;2023-06-19T11:51:08;99333.56;;;39.15;7.62
75617;BME280;64200;55.426;37.758;2023-06-19T11:56:09;99327.03;;;39.17;7.78
75617;BME280;64200;55.426;37.758;2023-06-19T12:01:09;99322.34;;;39.30;7.18
75617;BME280;64200;55.426;37.758;2023-06-19T12:06:10;99326.69;;;37.26;7.79
75617;BME280;64200;55.426;37.758;2023-06-19T12:11:10;99307.84;;;33.72;9.36
75617;BME280;64200;55.426;37.758;2023-06-19T12:16:13;99310.97;;;31.31;11.25
75617;BME280;64200;55.426;37.758;2023-06-19T12:21:14;99294.19;;;29.57;12.97
75617;BME280;64200;55.426;37.758;2023-06-19T12:26:14;99291.84;;;29.75;12.85
75617;BME280;64200;55.426;37.758;2023-06-19T12:31:15;99286.09;;;29.34;13.46
75617;BME280;64200;55.426;37.758;2023-06-19T12:36:15;99278.06;;;29.32;13.58
75617;BME280;64200;55.426;37.758;2023-06-19T12:41:16;99270.53;;;29.07;14.04
75617;BME280;64200;55.426;37.758;2023-06-19T12:46:16;99265.38;;;29.16;14.02
75617;BME280;64200;55.426;37.758;2023-06-19T12:51:17;99259.06;;;28.98;13.86
75617;BME280;64200;55.426;37.758;2023-06-19T12:56:18;99258.78;;;28.64;14.50
75617;BME280;64200;55.426;37.758;2023-06-19T13:01:19;99246.66;;;28.36;14.87
75617;BME280;64200;55.426;37.758;2023-06-19T13:06:19;99255.94;;;27.98;14.89
75617;BME280;64200;55.426;37.758;2023-06-19T13:11:20;99235.97;;;28.37;14.85
75617;BME280;64200;55.426;37.758;2023-06-19T13:16:20;99232.00;;;28.03;15.22
75617;BME280;64200;55.426;37.758;2023-06-19T13:21:28;99222.72;;;27.95;15.82
75617;BME280;64200;55.426;37.758;2023-06-19T13:26:28;99226.97;;;27.94;15.68
75617;BME280;64200;55.426;37.758;2023-06-19T13:31:29;99223.25;;;28.11;15.65
75617;BME280;64200;55.426;37.758;2023-06-19T13:36:30;99208.59;;;28.07;15.56
75617;BME280;64200;55.426;37.758;2023-06-19T13:41:31;99204.22;;;28.06;15.96
75617;BME280;64200;55.426;37.758;2023-06-19T13:46:32;99194.81;;;27.85;15.78
75617;BME280;64200;55.426;37.758;2023-06-19T13:51:33;99203.06;;;27.72;16.07
75617;BME280;64200;55.426;37.758;2023-06-19T13:56:34;99201.97;;;27.30;15.84
75617;BME280;64200;55.426;37.758;2023-06-19T14:01:34;99194.59;;;26.99;16.11
75617;BME280;64200;55.426;37.758;2023-06-19T14:06:35;99184.69;;;26.83;16.35
75617;BME280;64200;55.426;37.758;2023-06-19T14:11:38;99198.34;;;26.75;16.03
75617;BME280;64200;55.426;37.758;2023-06-19T14:16:38;99189.50;;;26.63;16.21
75617;BME280;64200;55.426;37.758;2023-06-19T14:21:39;99185.56;;;26.58;16.09
75617;BME280;64200;55.426;37.758;2023-06-19T14:26:39;99181.53;;;26.44;16.23
75617;BME280;64200;55.426;37.758;2023-06-19T14:31:40;99181.22;;;26.22;16.64
75617;BME280;64200;55.426;37.758;2023-06-19T14:36:40;99184.91;;;26.15;17.14
75617;BME280;64200;55.426;37.758;2023-06-19T14:41:41;99182.72;;;26.06;17.11
75617;BME280;64200;55.426;37.758;2023-06-19T14:46:42;99174.81;;;26.14;17.02
75617;BME280;64200;55.426;37.758;2023-06-19T14:51:43;99176.50;;;26.00;16.93
75617;BME280;64200;55.426;37.758;2023-06-19T14:56:44;99166.50;;;25.83;17.49
75617;BME280;64200;55.426;37.758;2023-06-19T15:01:48;99156.84;;;25.78;17.31
75617;BME280;64200;55.426;37.758;2023-06-19T15:06:48;99154.81;;;25.54;17.42
75617;BME280;64200;55.426;37.758;2023-06-19T15:11:49;99158.34;;;25.37;17.48
75617;BME280;64200;55.426;37.758;2023-06-19T15:16:49;99156.28;;;25.30;17.79
75617;BME280;64200;55.426;37.758;2023-06-19T15:21:50;99147.69;;;25.04;18.26
75617;BME280;64200;55.426;37.758;2023-06-19T15:26:50;99141.59;;;25.08;18.34
75617;BME280;64200;55.426;37.758;2023-06-19T15:31:51;99149.88;;;24.96;18.74
75617;BME280;64200;55.426;37.758;2023-06-19T15:36:52;99145.00;;;24.81;18.73
75617;BME280;64200;55.426;37.758;2023-06-19T15:41:52;99147.28;;;24.83;18.85
75617;BME280;64200;55.426;37.758;2023-06-19T15:46:53;99152.97;;;24.83;18.69
75617;BME280;64200;55.426;37.758;2023-06-19T15:51:53;99152.09;;;24.65;18.88
75617;BME280;64200;55.426;37.758;2023-06-19T15:56:54;99146.66;;;24.44;19.14
75617;BME280;64200;55.426;37.758;2023-06-19T16:01:54;99160.38;;;24.37;19.72
75617;BME280;64200;55.426;37.758;2023-06-19T16:06:55;99158.13;;;24.28;19.61
75617;BME280;64200;55.426;37.758;2023-06-19T16:11:55;99164.06;;;24.15;20.19
75617;BME280;64200;55.426;37.758;2023-06-19T16:16:56;99166.75;;;24.05;20.41
75617;BME280;64200;55.426;37.758;2023-06-19T16:21:57;99157.28;;;23.87;20.61
75617;BME280;64200;55.426;37.758;2023-06-19T16:26:57;99167.72;;;23.77;20.44
75617;BME280;64200;55.426;37.758;2023-06-19T16:31:58;99167.88;;;23.79;20.69
75617;BME280;64200;55.426;37.758;2023-06-19T16:36:59;99173.00;;;23.80;20.76
75617;BME280;64200;55.426;37.758;2023-06-19T16:41:59;99176.44;;;23.63;21.16
75617;BME280;64200;55.426;37.758;2023-06-19T16:47:00;99165.63;;;23.54;21.30
75617;BME280;64200;55.426;37.758;2023-06-19T16:52:01;99169.41;;;23.49;21.68
75617;BME280;64200;55.426;37.758;2023-06-19T16:57:01;99167.53;;;23.36;22.16
75617;BME280;64200;55.426;37.758;2023-06-19T17:02:02;99174.91;;;23.31;22.03
75617;BME280;64200;55.426;37.758;2023-06-19T17:07:02;99172.63;;;23.22;22.03
75617;BME280;64200;55.426;37.758;2023-06-19T17:12:03;99171.09;;;23.13;22.52
75617;BME280;64200;55.426;37.758;2023-06-19T17:17:04;99182.63;;;23.08;22.38
75617;BME280;64200;55.426;37.758;2023-06-19T17:22:05;99169.53;;;22.97;22.58
75617;BME280;64200;55.426;37.758;2023-06-19T17:27:05;99174.97;;;22.87;22.78
75617;BME280;64200;55.426;37.758;2023-06-19T17:32:06;99168.31;;;22.69;23.18
75617;BME280;64200;55.426;37.758;2023-06-19T17:37:08;99184.78;;;22.63;23.29
75617;BME280;64200;55.426;37.758;2023-06-19T17:42:09;99172.81;;;22.57;23.50
75617;BME280;64200;55.426;37.758;2023-06-19T17:47:10;99176.19;;;22.48;23.70
75617;BME280;64200;55.426;37.758;2023-06-19T17:52:10;99185.78;;;22.37;23.76
75617;BME280;64200;55.426;37.758;2023-06-19T17:57:11;99183.66;;;22.30;23.80
75617;BME280;64200;55.426;37.758;2023-06-19T18:02:12;99192.13;;;22.22;24.08
75617;BME280;64200;55.426;37.758;2023-06-19T18:07:13;99204.00;;;22.13;24.43
75617;BME280;64200;55.426;37.758;2023-06-19T18:12:16;99199.75;;;21.98;24.68
75617;BME280;64200;55.426;37.758;2023-06-19T18:17:17;99204.19;;;21.86;24.85
75617;BME280;64200;55.426;37.758;2023-06-19T18:22:18;99207.88;;;21.73;25.38
75617;BME280;64200;55.426;37.758;2023-06-19T18:27:18;99214.00;;;21.56;25.66
75617;BME280;64200;55.426;37.758;2023-06-19T18:32:19;99211.81;;;21.49;25.87
75617;BME280;64200;55.426;37.758;2023-06-19T18:37:19;99215.91;;;21.40;26.56
75617;BME280;64200;55.426;37.758;2023-06-19T18:42:20;99211.69;;;21.33;26.40
75617;BME280;64200;55.426;37.758;2023-06-19T18:47:21;99210.41;;;21.21;26.89
75617;BME280;64200;55.426;37.758;2023-06-19T18:52:21;99212.63;;;21.15;26.97
75617;BME280;64200;55.426;37.758;2023-06-19T18:57:22;99213.31;;;21.08;27.56
75617;BME280;64200;55.426;37.758;2023-06-19T19:02:28;99212.88;;;21.03;27.50
75617;BME280;64200;55.426;37.758;2023-06-19T19:07:28;99209.53;;;20.92;27.69
75617;BME280;64200;55.426;37.758;2023-06-19T19:12:29;99213.06;;;20.84;28.30
75617;BME280;64200;55.426;37.758;2023-06-19T19:17:29;99214.16;;;20.68;28.75
75617;BME280;64200;55.426;37.758;2023-06-19T19:22:30;99212.31;;;20.57;29.17
75617;BME280;64200;55.426;37.758;2023-06-19T19:27:30;99218.63;;;20.50;29.34
75617;BME280;64200;55.426;37.758;2023-06-19T19:32:31;99212.13;;;20.42;30.02
75617;BME280;64200;55.426;37.758;2023-06-19T19:37:31;99216.91;;;20.33;29.98
75617;BME280;64200;55.426;37.758;2023-06-19T19:42:32;99208.84;;;20.24;30.01
75617;BME280;64200;55.426;37.758;2023-06-19T19:47:34;99211.03;;;20.18;30.37
75617;BME280;64200;55.426;37.758;2023-06-19T19:52:35;99197.09;;;20.07;30.63
75617;BME280;64200;55.426;37.758;2023-06-19T19:57:35;99203.41;;;19.99;30.58
75617;BME280;64200;55.426;37.758;2023-06-19T20:02:39;99189.69;;;19.90;30.58
75617;BME280;64200;55.426;37.758;2023-06-19T20:07:39;99204.91;;;19.87;31.02
75617;BME280;64200;55.426;37.758;2023-06-19T20:12:40;99196.38;;;19.74;31.10
75617;BME280;64200;55.426;37.758;2023-06-19T20:17:40;99201.03;;;19.71;31.35
75617;BME280;64200;55.426;37.758;2023-06-19T20:22:41;99201.13;;;19.65;32.00
75617;BME280;64200;55.426;37.758;2023-06-19T20:27:41;99203.84;;;19.58;32.36
75617;BME280;64200;55.426;37.758;2023-06-19T20:32:42;99216.13;;;19.47;32.41
75617;BME280;64200;55.426;37.758;2023-06-19T20:37:42;99200.53;;;19.40;32.84
75617;BME280;64200;55.426;37.758;2023-06-19T20:42:43;99205.31;;;19.32;33.23
75617;BME280;64200;55.426;37.758;2023-06-19T20:47:43;99216.69;;;19.26;33.40
75617;BME280;64200;55.426;37.758;2023-06-19T20:52:44;99207.09;;;19.16;33.80
75617;BME280;64200;55.426;37.758;2023-06-19T20:57:44;99202.13;;;19.03;34.10
75617;BME280;64200;55.426;37.758;2023-06-19T21:02:45;99201.25;;;18.95;34.20
75617;BME280;64200;55.426;37.758;2023-06-19T21:07:46;99194.94;;;18.83;34.59
75617;BME280;64200;55.426;37.758;2023-06-19T21:12:48;99188.06;;;18.59;34.97
75617;BME280;64200;55.426;37.758;2023-06-19T21:17:50;99189.81;;;18.43;35.57
75617;BME280;64200;55.426;37.758;2023-06-19T21:22:51;99202.72;;;18.39;35.44
75617;BME280;64200;55.426;37.758;2023-06-19T21:27:51;99202.78;;;18.33;35.81
75617;BME280;64200;55.426;37.758;2023-06-19T21:32:52;99199.69;;;18.31;36.18
75617;BME280;64200;55.426;37.758;2023-06-19T21:37:53;99209.31;;;18.22;36.37
75617;BME280;64200;55.426;37.758;2023-06-19T21:42:53;99203.19;;;18.18;36.50
75617;BME280;64200;55.426;37.758;2023-06-19T21:47:54;99204.50;;;18.17;36.61
75617;BME280;64200;55.426;37.758;2023-06-19T21:52:55;99211.25;;;18.08;36.75
75617;BME280;64200;55.426;37.758;2023-06-19T21:57:56;99207.41;;;18.06;37.08
75617;BME280;64200;55.426;37.758;2023-06-19T22:02:57;99211.50;;;18.11;36.82
75617;BME280;64200;55.426;37.758;2023-06-19T22:07:57;99193.13;;;17.98;37.18
75617;BME280;64200;55.426;37.758;2023-06-19T22:12:58;99198.84;;;17.93;37.28
75617;BME280;64200;55.426;37.758;2023-06-19T22:17:58;99194.28;;;17.84;37.47
75617;BME280;64200;55.426;37.758;2023-06-19T22:23:01;99193.56;;;17.78;37.90
75617;BME280;64200;55.426;37.758;2023-06-19T22:28:01;99188.28;;;17.68;37.55
75617;BME280;64200;55.426;37.758;2023-06-19T22:33:02;99187.31;;;17.60;37.63
75617;BME280;64200;55.426;37.758;2023-06-19T22:38:05;99177.69;;;17.50;37.50
75617;BME280;64200;55.426;37.758;2023-06-19T22:43:06;99180.22;;;17.53;37.71
75617;BME280;64200;55.426;37.758;2023-06-19T22:48:07;99172.81;;;17.50;37.36
75617;BME280;64200;55.426;37.758;2023-06-19T22:53:07;99175.63;;;17.50;37.58
75617;BME280;64200;55.426;37.758;2023-06-19T22:58:08;99177.44;;;17.48;37.59
75617;BME280;64200;55.426;37.758;2023-06-19T23:03:09;99171.56;;;17.46;37.60
75617;BME280;64200;55.426;37.758;2023-06-19T23:08:10;99166.72;;;17.41;37.77
75617;BME280;64200;55.426;37.758;2023-06-19T23:13:10;99158.66;;;17.26;37.63
75617;BME280;64200;55.426;37.758;2023-06-19T23:18:12;99164.16;;;17.12;37.45
75617;BME280;64200;55.426;37.758;2023-06-19T23:23:13;99163.09;;;17.15;37.65
75617;BME280;64200;55.426;37.758;2023-06-19T23:28:18;99154.16;;;17.11;37.98
75617;BME280;64200;55.426;37.758;2023-06-19T23:33:18;99152.44;;;17.02;37.88
75617;BME280;64200;55.426;37.758;2023-06-19T23:38:20;99150.66;;;16.99;38.10
75617;BME280;64200;55.426;37.758;2023-06-19T23:43:20;99149.38;;;17.00;38.46
75617;BME280;64200;55.426;37.758;2023-06-19T23:48:21;99143.19;;;17.08;38.30
75617;BME280;64200;55.426;37.758;2023-06-19T23:53:21;99153.41;;;17.11;38.40
75617;BME280;64200;55.426;37.758;2023-06-19T23:58:22;99146.00;;;17.08;38.29
